createdAt,value
2022-12-18T00:02:33.081Z,96.49
2022-12-18T00:06:05.227Z,96.91
2022-12-18T00:09:39.177Z,96.20
2022-12-18T00:13:06.646Z,97.47
2022-12-18T00:16:36.284Z,97.49
2022-12-18T00:20:00.235Z,94.31
2022-12-18T00:23:30.482Z,93.94
2022-12-18T00:26:52.232Z,94.58
2022-12-18T00:30:14.338Z,96.22
2022-12-18T00:33:37.231Z,95.10
2022-12-18T00:36:59.283Z,96.03
2022-12-18T00:40:30.399Z,96.70
2022-12-18T00:43:52.250Z,97.63
2022-12-18T00:47:14.058Z,97.02
2022-12-18T00:50:52.417Z,97.25
2022-12-18T00:54:20.270Z,94.97
2022-12-18T00:57:42.689Z,95.07
2022-12-18T01:01:08.306Z,95.00
2022-12-18T01:04:33.357Z,94.28
2022-12-18T01:08:03.382Z,94.48
2022-12-18T01:11:41.053Z,94.66
2022-12-18T01:15:04.620Z,95.03
2022-12-18T01:18:46.055Z,94.48
2022-12-18T01:22:07.882Z,94.19
2022-12-18T01:25:32.784Z,93.59
2022-12-18T01:28:58.947Z,94.09
2022-12-18T01:32:31.462Z,95.48
2022-12-18T01:36:01.150Z,93.79
2022-12-18T01:39:24.286Z,93.58
2022-12-18T01:42:52.011Z,93.38
2022-12-18T01:46:17.524Z,93.44
2022-12-18T01:49:40.523Z,93.00
2022-12-18T01:53:15.101Z,93.42
2022-12-18T01:56:38.068Z,92.59
2022-12-18T02:00:12.588Z,92.99
2022-12-18T02:03:47.265Z,92.67
2022-12-18T02:07:44.963Z,93.40
2022-12-18T02:11:20.966Z,92.70
2022-12-18T02:15:07.452Z,91.57
2022-12-18T02:18:45.276Z,91.42
2022-12-18T02:22:46.943Z,91.95
2022-12-18T02:26:47.616Z,91.64
2022-12-18T02:30:10.463Z,91.40
2022-12-18T02:33:37.051Z,90.31
2022-12-18T02:37:12.095Z,91.27
2022-12-18T02:40:39.470Z,90.08
2022-12-18T02:44:20.130Z,90.51
2022-12-18T02:47:48.763Z,90.43
2022-12-18T02:51:45.815Z,91.09
2022-12-18T02:55:33.548Z,92.63
2022-12-18T02:59:10.865Z,94.82
2022-12-18T03:03:13.086Z,94.48
2022-12-18T03:06:49.376Z,94.69
2022-12-18T03:10:19.782Z,94.16
2022-12-18T03:13:54.428Z,96.00
2022-12-18T03:17:23.313Z,95.74
2022-12-18T03:20:52.473Z,94.32
2022-12-18T03:24:30.688Z,94.30
2022-12-18T03:27:58.794Z,94.34
2022-12-18T03:31:27.197Z,92.74
2022-12-18T03:34:53.599Z,93.94
2022-12-18T03:38:19.635Z,95.41
2022-12-18T03:42:25.653Z,94.44
2022-12-18T03:46:03.958Z,94.74
2022-12-18T03:49:49.445Z,94.85
2022-12-18T03:53:38.317Z,94.54
2022-12-18T03:57:13.671Z,93.72
2022-12-18T04:00:36.645Z,95.53
2022-12-18T04:04:05.983Z,95.14
2022-12-18T04:07:34.761Z,94.87
2022-12-18T04:11:06.022Z,96.21
2022-12-18T04:14:28.821Z,96.04
2022-12-18T04:17:52.259Z,94.37
2022-12-18T04:21:18.012Z,92.89
2022-12-18T04:24:40.927Z,92.60
2022-12-18T04:28:14.501Z,93.48
2022-12-18T04:31:41.538Z,93.00
2022-12-18T04:35:07.373Z,92.93
2022-12-18T04:38:30.379Z,92.42
2022-12-18T04:42:09.645Z,91.90
2022-12-18T04:45:33.283Z,92.02
2022-12-18T04:48:57.272Z,94.24
2022-12-18T04:52:19.108Z,92.71
2022-12-18T04:55:40.947Z,92.93
2022-12-18T04:59:02.817Z,93.08
2022-12-18T05:02:24.920Z,93.78
2022-12-18T05:05:50.700Z,94.35
2022-12-18T05:09:12.651Z,94.64
2022-12-18T05:12:55.502Z,93.06
2022-12-18T05:16:18.405Z,93.00
2022-12-18T05:19:40.336Z,93.04
2022-12-18T05:23:02.144Z,94.35
2022-12-18T05:26:24.045Z,95.89
2022-12-18T05:29:45.966Z,96.25
2022-12-18T05:33:07.842Z,95.65
2022-12-18T05:36:30.887Z,96.61
2022-12-18T05:39:52.868Z,96.91
2022-12-18T05:43:20.790Z,94.72
2022-12-18T05:46:43.201Z,95.21
2022-12-18T05:50:05.982Z,92.79
2022-12-18T05:53:27.792Z,92.86
2022-12-18T05:57:00.486Z,93.84
2022-12-18T06:00:22.537Z,95.12
2022-12-18T06:03:45.416Z,95.02
2022-12-18T06:07:07.824Z,94.63
2022-12-18T06:10:29.705Z,94.08
2022-12-18T06:13:58.622Z,94.16
2022-12-18T06:17:34.232Z,94.41
2022-12-18T06:21:05.501Z,94.77
2022-12-18T06:24:34.162Z,95.37
2022-12-18T06:27:55.986Z,96.14
2022-12-18T06:31:17.911Z,94.41
2022-12-18T06:34:56.311Z,94.01
2022-12-18T06:38:19.237Z,94.21
2022-12-18T06:41:41.038Z,95.12
2022-12-18T06:45:04.277Z,95.05
2022-12-18T06:48:26.219Z,94.84
2022-12-18T06:51:48.178Z,94.96
2022-12-18T06:55:12.338Z,94.82
2022-12-18T06:58:40.866Z,94.73
2022-12-18T07:02:05.954Z,95.18
2022-12-18T07:05:28.037Z,96.44
2022-12-18T07:08:59.913Z,96.37
2022-12-18T07:12:24.032Z,98.47
2022-12-18T07:15:45.855Z,99.66
2022-12-18T07:19:26.253Z,100.00
2022-12-18T07:22:52.071Z,100.00
2022-12-18T07:26:24.584Z,100.00
2022-12-18T07:29:47.481Z,100.00
2022-12-18T07:33:10.417Z,100.00
2022-12-18T07:36:32.381Z,100.00
2022-12-18T07:39:59.390Z,100.00
2022-12-18T07:43:21.241Z,100.00
2022-12-18T07:46:43.188Z,100.00
2022-12-18T07:50:07.139Z,100.00
2022-12-18T07:53:30.009Z,100.00
2022-12-18T07:56:52.703Z,100.00
2022-12-18T08:00:15.374Z,100.00
2022-12-18T08:03:39.236Z,100.00
2022-12-18T08:07:01.215Z,100.00
2022-12-18T08:10:25.057Z,100.00
2022-12-18T08:13:46.911Z,100.00
2022-12-18T08:17:08.783Z,100.00
2022-12-18T08:20:30.842Z,100.00
2022-12-18T08:23:55.526Z,100.00
2022-12-18T08:27:32.743Z,100.00
2022-12-18T08:30:54.728Z,100.00
2022-12-18T08:34:17.820Z,100.00
2022-12-18T08:37:39.661Z,100.00
2022-12-18T08:41:09.640Z,100.00
2022-12-18T08:44:40.399Z,100.00
2022-12-18T08:48:04.291Z,100.00
2022-12-18T08:51:26.061Z,100.00
2022-12-18T08:54:47.884Z,100.00
2022-12-18T08:58:09.702Z,100.00
2022-12-18T09:01:31.772Z,100.00
2022-12-18T09:04:57.560Z,100.00
2022-12-18T09:08:19.633Z,100.00
2022-12-18T09:11:56.651Z,100.00
2022-12-18T09:15:20.437Z,100.00
2022-12-18T09:18:43.407Z,100.00
2022-12-18T09:22:06.678Z,100.00
2022-12-18T09:25:36.567Z,100.00
2022-12-18T09:28:58.422Z,100.00
2022-12-18T09:32:22.663Z,100.00
2022-12-18T09:35:46.245Z,99.63
2022-12-18T09:39:09.207Z,98.98
2022-12-18T09:42:33.438Z,100.00
2022-12-18T09:46:12.440Z,98.64
2022-12-18T09:49:43.854Z,99.64
2022-12-18T09:53:23.633Z,100.00
2022-12-18T09:57:02.659Z,100.00
2022-12-18T10:00:26.409Z,100.00
2022-12-18T10:03:58.923Z,100.00
2022-12-18T10:07:40.062Z,100.00
2022-12-18T10:11:27.603Z,100.00
2022-12-18T10:15:00.838Z,100.00
2022-12-18T10:18:51.272Z,100.00
2022-12-18T10:22:55.960Z,100.00
2022-12-18T10:26:20.199Z,100.00
2022-12-18T10:29:50.215Z,100.00
2022-12-18T10:33:20.026Z,100.00
2022-12-18T10:36:45.357Z,99.85
2022-12-18T10:40:21.497Z,99.75
2022-12-18T10:43:46.276Z,98.61
2022-12-18T10:47:18.568Z,98.43
2022-12-18T10:51:09.607Z,99.97
2022-12-18T10:54:41.430Z,100.00
2022-12-18T10:58:36.546Z,97.88
2022-12-18T11:01:59.765Z,99.48
2022-12-18T11:05:31.175Z,97.08
2022-12-18T11:09:14.446Z,95.96
2022-12-18T11:12:44.661Z,96.78
2022-12-18T11:16:07.791Z,95.70
2022-12-18T11:19:41.870Z,93.39
2022-12-18T11:23:14.521Z,94.66
2022-12-18T11:26:37.127Z,94.33
2022-12-18T11:30:26.994Z,93.29
2022-12-18T11:34:30.503Z,91.13
2022-12-18T11:38:18.343Z,90.61
2022-12-18T11:42:12.910Z,89.62
2022-12-18T11:45:44.390Z,88.74
2022-12-18T11:49:35.419Z,89.87
2022-12-18T11:53:01.524Z,89.84
2022-12-18T11:56:48.523Z,90.36
2022-12-18T12:00:24.118Z,90.55
2022-12-18T12:04:30.969Z,90.88
2022-12-18T12:08:20.047Z,91.26
2022-12-18T12:12:14.450Z,91.24
2022-12-18T12:16:19.646Z,90.66
2022-12-18T12:20:03.395Z,90.99
2022-12-18T12:23:54.968Z,88.72
2022-12-18T12:28:10.534Z,87.51
2022-12-18T12:32:09.419Z,88.11
2022-12-18T12:36:14.217Z,88.58
2022-12-18T12:39:47.951Z,90.10
2022-12-18T12:43:36.193Z,92.78
2022-12-18T12:47:08.292Z,92.17
2022-12-18T12:50:35.191Z,90.25
2022-12-18T12:54:00.917Z,89.90
2022-12-18T12:57:37.949Z,90.44
2022-12-18T13:01:23.442Z,89.47
2022-12-18T13:04:53.558Z,88.00
2022-12-18T13:08:31.646Z,87.41
2022-12-18T13:12:30.520Z,86.76
2022-12-18T13:16:12.661Z,86.19
2022-12-18T13:19:36.229Z,87.74
2022-12-18T13:22:59.557Z,90.80
2022-12-18T13:26:28.810Z,90.93
2022-12-18T13:29:56.903Z,90.29
2022-12-18T13:33:24.649Z,90.84
2022-12-18T13:36:52.858Z,91.11
2022-12-18T13:40:39.737Z,91.93
2022-12-18T13:48:26.830Z,92.21
2022-12-18T13:51:57.188Z,91.48
2022-12-18T13:55:23.379Z,92.81
2022-12-18T13:58:45.254Z,90.48
2022-12-18T14:02:22.770Z,88.51
2022-12-18T14:06:17.632Z,90.45
2022-12-18T14:10:41.216Z,91.11
2022-12-18T14:13:43.278Z,89.17
2022-12-18T14:17:13.678Z,88.66
2022-12-18T14:20:46.574Z,88.46
2022-12-18T14:24:22.615Z,87.17
2022-12-18T14:28:07.586Z,87.36
2022-12-18T14:31:32.721Z,87.77
2022-12-18T14:34:57.968Z,86.56
2022-12-18T14:38:34.040Z,87.47
2022-12-18T14:42:01.921Z,88.95
2022-12-18T14:45:47.425Z,88.94
2022-12-18T14:49:29.730Z,88.40
2022-12-18T14:52:52.157Z,87.71
2022-12-18T14:56:24.677Z,88.20
2022-12-18T14:59:46.623Z,87.90
2022-12-18T15:03:22.303Z,87.79
2022-12-18T15:06:49.701Z,88.08
2022-12-18T15:10:30.174Z,88.27
2022-12-18T15:13:52.240Z,88.38
2022-12-18T15:17:23.904Z,89.49
2022-12-18T15:20:56.026Z,90.61
2022-12-18T15:24:31.713Z,91.39
2022-12-18T15:27:53.684Z,92.35
2022-12-18T15:31:17.426Z,93.70
2022-12-18T15:34:39.925Z,92.44
2022-12-18T15:38:04.906Z,91.91
2022-12-18T15:41:28.315Z,92.42
2022-12-18T15:44:50.169Z,92.43
2022-12-18T15:48:24.284Z,91.86
2022-12-18T15:52:00.627Z,91.28
2022-12-18T15:55:45.554Z,92.07
2022-12-18T15:59:18.239Z,92.52
2022-12-18T16:02:40.293Z,91.14
2022-12-18T16:06:04.531Z,90.26
2022-12-18T16:09:26.713Z,92.01
2022-12-18T16:12:48.916Z,92.26
2022-12-18T16:16:10.820Z,93.42
2022-12-18T16:19:34.704Z,93.40
2022-12-18T16:22:56.620Z,93.76
2022-12-18T16:26:18.498Z,94.77
2022-12-18T16:29:40.353Z,96.89
2022-12-18T16:33:02.205Z,97.12
2022-12-18T16:36:24.007Z,98.04
2022-12-18T16:39:45.935Z,97.80
2022-12-18T16:43:08.034Z,97.37
2022-12-18T16:46:30.692Z,97.02
2022-12-18T16:49:53.537Z,95.28
2022-12-18T16:53:17.544Z,94.44
2022-12-18T16:56:40.702Z,94.81
2022-12-18T17:00:06.273Z,95.01
2022-12-18T17:03:30.302Z,94.24
2022-12-18T17:06:59.294Z,95.29
2022-12-18T17:10:21.103Z,95.62
2022-12-18T17:13:43.411Z,96.16
2022-12-18T17:17:25.900Z,96.12
2022-12-18T17:20:47.851Z,95.88
2022-12-18T17:24:16.980Z,97.41
2022-12-18T17:27:45.171Z,98.91
2022-12-18T17:31:18.124Z,100.00
2022-12-18T17:34:42.052Z,100.00
2022-12-18T17:38:04.988Z,100.00
2022-12-18T17:41:32.019Z,100.00
2022-12-18T17:44:53.912Z,100.00
2022-12-18T17:48:18.105Z,100.00
2022-12-18T17:51:42.859Z,100.00
2022-12-18T17:55:07.994Z,100.00
2022-12-18T17:58:32.013Z,100.00
2022-12-18T18:01:57.043Z,100.00
2022-12-18T18:05:22.433Z,100.00
2022-12-18T18:08:44.453Z,100.00
2022-12-18T18:12:25.936Z,100.00
2022-12-18T18:15:57.137Z,100.00
2022-12-18T18:19:24.385Z,100.00
2022-12-18T18:22:46.312Z,100.00
2022-12-18T18:26:13.181Z,100.00
2022-12-18T18:29:36.378Z,100.00
2022-12-18T18:33:11.836Z,100.00
2022-12-18T18:36:34.092Z,100.00
2022-12-18T18:39:57.021Z,100.00
2022-12-18T18:43:20.878Z,100.00
2022-12-18T18:46:42.882Z,99.99
2022-12-18T18:50:12.852Z,98.22
2022-12-18T18:53:40.872Z,97.54
2022-12-18T18:57:20.399Z,95.50
2022-12-18T19:00:42.905Z,96.75
2022-12-18T19:04:05.495Z,97.28
2022-12-18T19:07:30.365Z,97.95
2022-12-18T19:10:59.346Z,98.80
2022-12-18T19:14:23.919Z,99.11
2022-12-18T19:17:47.250Z,100.00
2022-12-18T19:21:11.008Z,100.00
2022-12-18T19:24:46.104Z,100.00
2022-12-18T19:28:21.306Z,100.00
2022-12-18T19:31:45.090Z,100.00
2022-12-18T19:35:07.657Z,100.00
2022-12-18T19:38:31.261Z,100.00
2022-12-18T19:41:53.384Z,100.00
2022-12-18T19:45:18.393Z,100.00
2022-12-18T19:48:44.928Z,100.00
2022-12-18T19:52:12.783Z,100.00
2022-12-18T19:55:42.365Z,100.00
2022-12-18T19:59:11.913Z,100.00
2022-12-18T20:02:36.501Z,100.00
2022-12-18T20:06:15.548Z,100.00
2022-12-18T20:09:38.963Z,100.00
2022-12-18T20:13:09.711Z,100.00
2022-12-18T20:16:38.827Z,100.00
2022-12-18T20:20:01.039Z,100.00
2022-12-18T20:23:25.476Z,100.00
2022-12-18T20:26:58.371Z,100.00
2022-12-18T20:30:22.459Z,100.00
2022-12-18T20:33:47.660Z,100.00
2022-12-18T20:37:10.724Z,100.00
2022-12-18T20:40:34.674Z,100.00
2022-12-18T20:43:58.614Z,100.00
2022-12-18T20:47:23.886Z,100.00
2022-12-18T20:51:06.991Z,100.00
2022-12-18T20:54:30.014Z,100.00
2022-12-18T20:57:58.387Z,100.00
2022-12-18T21:01:30.446Z,100.00
2022-12-18T21:04:57.095Z,100.00
2022-12-18T21:08:21.007Z,100.00
2022-12-18T21:12:01.730Z,100.00
2022-12-18T21:15:28.706Z,100.00
2022-12-18T21:18:54.461Z,100.00
2022-12-18T21:22:17.210Z,100.00
2022-12-18T21:25:39.215Z,100.00
2022-12-18T21:29:05.899Z,100.00
2022-12-18T21:32:29.845Z,100.00
2022-12-18T21:35:55.434Z,100.00
2022-12-18T21:39:24.355Z,100.00
2022-12-18T21:43:06.988Z,100.00
2022-12-18T21:46:38.314Z,100.00
2022-12-18T21:50:01.425Z,100.00
2022-12-18T21:53:34.404Z,100.00
2022-12-18T21:57:03.718Z,100.00
2022-12-18T22:00:28.062Z,100.00
2022-12-18T22:04:00.760Z,100.00
2022-12-18T22:07:23.648Z,100.00
2022-12-18T22:10:49.568Z,100.00
2022-12-18T22:14:11.955Z,100.00
2022-12-18T22:17:41.649Z,100.00
2022-12-18T22:21:06.405Z,100.00
2022-12-18T22:24:29.224Z,100.00
2022-12-18T22:28:10.616Z,100.00
2022-12-18T22:31:32.680Z,100.00
2022-12-18T22:35:09.133Z,100.00
2022-12-18T22:38:34.006Z,100.00
2022-12-18T22:42:01.757Z,100.00
2022-12-18T22:45:25.842Z,100.00
2022-12-18T22:48:47.839Z,100.00
2022-12-18T22:52:10.232Z,100.00
2022-12-18T22:55:44.542Z,100.00
2022-12-18T22:59:15.340Z,100.00
2022-12-18T23:02:37.297Z,100.00
2022-12-18T23:06:10.407Z,100.00
2022-12-18T23:09:35.119Z,100.00
2022-12-18T23:13:12.454Z,100.00
2022-12-18T23:16:50.801Z,100.00
2022-12-18T23:20:15.045Z,100.00
2022-12-18T23:23:45.552Z,100.00
2022-12-18T23:27:11.362Z,100.00
2022-12-18T23:30:40.929Z,100.00
2022-12-18T23:34:06.366Z,100.00
2022-12-18T23:37:57.433Z,100.00
2022-12-18T23:41:15.194Z,100.00
2022-12-18T23:44:43.103Z,100.00
2022-12-18T23:48:04.982Z,100.00
2022-12-18T23:51:29.136Z,100.00
2022-12-18T23:54:52.085Z,100.00
2022-12-18T23:58:22.294Z,100.00
